createdAt,value
2018-02-01T00:01:25.117Z,13.93
2018-02-01T00:03:52.776Z,12.47
2018-02-01T00:06:28.878Z,13.13
2018-02-01T00:08:56.639Z,14.37
2018-02-01T00:11:24.600Z,14.00
2018-02-01T00:13:57.247Z,13.03
2018-02-01T00:16:24.944Z,12.50
2018-02-01T00:18:55.888Z,13.50
2018-02-01T00:21:22.746Z,15.20
2018-02-01T00:23:49.468Z,12.77
2018-02-01T00:26:16.166Z,13.17
2018-02-01T00:28:43.924Z,12.60
2018-02-01T00:31:12.569Z,12.40
2018-02-01T00:33:39.254Z,12.63
2018-02-01T00:36:07.910Z,11.03
2018-02-01T00:38:34.625Z,10.93
2018-02-01T00:41:03.192Z,12.20
2018-02-01T00:43:31.954Z,11.57
2018-02-01T00:45:58.698Z,11.73
2018-02-01T00:48:26.446Z,11.40
2018-02-01T00:50:53.214Z,10.83
2018-02-01T00:53:19.924Z,10.77
2018-02-01T00:55:46.608Z,11.40
2018-02-01T00:58:14.370Z,11.13
2018-02-01T01:00:42.102Z,12.87
2018-02-01T01:03:08.804Z,12.17
2018-02-01T01:05:36.534Z,11.53
2018-02-01T01:08:03.257Z,12.90
2018-02-01T01:10:29.989Z,11.87
2018-02-01T01:12:57.821Z,12.17
2018-02-01T01:15:25.540Z,11.60
2018-02-01T01:18:01.902Z,11.97
2018-02-01T01:20:29.573Z,11.23
2018-02-01T01:22:56.311Z,10.90
2018-02-01T01:25:23.033Z,11.87
2018-02-01T01:27:50.726Z,11.93
2018-02-01T01:30:17.414Z,11.50
2018-02-01T01:32:45.174Z,12.07
2018-02-01T01:35:12.905Z,11.80
2018-02-01T01:37:39.594Z,13.07
2018-02-01T01:40:12.518Z,12.70
2018-02-01T01:42:40.187Z,12.50
2018-02-01T01:45:07.861Z,13.67
2018-02-01T01:47:35.569Z,13.27
2018-02-01T01:50:03.201Z,14.80
2018-02-01T01:52:30.941Z,15.23
2018-02-01T01:54:58.714Z,14.63
2018-02-01T01:57:26.405Z,15.00
2018-02-01T01:59:53.083Z,16.90
2018-02-01T02:02:19.816Z,16.23
2018-02-01T02:04:51.954Z,17.63
2018-02-01T02:07:28.142Z,16.60
2018-02-01T02:09:56.818Z,17.40
2018-02-01T02:12:24.595Z,16.27
2018-02-01T02:15:06.145Z,16.67
2018-02-01T02:20:19.823Z,17.00
2018-02-01T02:25:37.537Z,15.53
2018-02-01T02:28:05.244Z,15.93
2018-02-01T02:43:23.975Z,13.87
2018-02-01T02:46:08.564Z,15.47
2018-02-01T02:48:40.827Z,15.60
2018-02-01T02:51:09.545Z,15.53
2018-02-01T02:53:50.089Z,13.97
2018-02-01T02:56:17.793Z,14.47
2018-02-01T02:58:44.463Z,15.17
2018-02-01T03:01:11.291Z,15.50
2018-02-01T03:03:38.021Z,15.47
2018-02-01T03:06:04.750Z,15.77
2018-02-01T03:08:32.477Z,16.87
2018-02-01T03:11:00.215Z,17.57
2018-02-01T03:18:58.970Z,16.70
2018-02-01T03:21:27.632Z,17.40
2018-02-01T03:23:54.327Z,19.00
2018-02-01T03:26:21.059Z,19.10
2018-02-01T03:28:47.745Z,18.73
2018-02-01T03:31:14.513Z,18.70
2018-02-01T03:33:41.250Z,19.87
2018-02-01T03:36:07.942Z,19.63
2018-02-01T03:38:35.655Z,20.47
2018-02-01T03:41:02.396Z,19.83
2018-02-01T03:43:30.067Z,22.40
2018-02-01T03:45:57.309Z,20.97
2018-02-01T03:48:25.159Z,23.70
2018-02-01T03:50:52.871Z,22.17
2018-02-01T03:53:20.529Z,20.90
2018-02-01T03:55:48.233Z,22.27
2018-02-01T03:58:15.963Z,18.97
2018-02-01T04:00:43.623Z,20.03
2018-02-01T04:03:10.343Z,18.73
2018-02-01T04:05:38.023Z,20.13
2018-02-01T04:08:05.701Z,18.23
2018-02-01T04:10:32.441Z,18.80
2018-02-01T04:13:13.601Z,20.00
2018-02-01T04:15:41.343Z,18.37
2018-02-01T04:18:09.067Z,19.10
2018-02-01T04:20:35.752Z,18.40
2018-02-01T04:23:03.513Z,19.47
2018-02-01T04:25:31.301Z,18.57
2018-02-01T04:28:03.411Z,17.83
2018-02-01T04:30:35.111Z,16.90
2018-02-01T04:33:03.703Z,15.43
2018-02-01T04:35:32.343Z,17.43
2018-02-01T04:38:00.061Z,17.13
2018-02-01T04:40:27.688Z,16.67
2018-02-01T04:42:56.374Z,17.07
2018-02-01T04:45:24.109Z,18.13
2018-02-01T04:47:51.861Z,17.50
2018-02-01T04:50:24.447Z,18.27
2018-02-01T04:52:53.183Z,18.53
2018-02-01T04:55:19.859Z,19.73
2018-02-01T04:57:47.524Z,21.43
2018-02-01T05:00:15.264Z,23.40
2018-02-01T05:02:43.961Z,21.03
2018-02-01T05:14:50.732Z,20.40
2018-02-01T05:17:19.499Z,21.30
2018-02-01T05:19:49.199Z,22.63
2018-02-01T05:31:57.996Z,23.50
2018-02-01T05:34:24.675Z,22.50
2018-02-01T05:36:51.380Z,22.83
2018-02-01T05:39:19.111Z,22.93
2018-02-01T05:41:45.804Z,23.53
2018-02-01T05:44:13.475Z,23.17
2018-02-01T05:46:42.544Z,24.17
2018-02-01T05:49:10.253Z,23.50
2018-02-01T05:51:37.010Z,22.50
2018-02-01T05:54:04.702Z,23.10
2018-02-01T05:56:32.440Z,22.07
2018-02-01T05:59:01.165Z,23.80
2018-02-01T06:01:28.939Z,24.33
2018-02-01T06:03:56.638Z,22.83
2018-02-01T06:06:30.124Z,20.87
2018-02-01T06:12:00.372Z,21.27
2018-02-01T06:14:31.277Z,19.13
2018-02-01T06:16:59.001Z,19.30
2018-02-01T06:19:28.731Z,18.80
2018-02-01T06:21:55.480Z,20.00
2018-02-01T06:24:23.172Z,21.60
2018-02-01T06:26:50.941Z,19.10
2018-02-01T06:29:17.671Z,17.57
2018-02-01T06:31:45.348Z,20.30
2018-02-01T06:34:14.016Z,18.07
2018-02-01T06:36:41.676Z,20.67
2018-02-01T06:39:09.370Z,19.27
2018-02-01T06:41:37.014Z,21.13
2018-02-01T06:44:03.726Z,22.17
2018-02-01T06:46:32.502Z,21.23
2018-02-01T06:49:00.196Z,23.67
2018-02-01T06:51:27.858Z,25.33
2018-02-01T06:53:56.602Z,25.17
2018-02-01T06:56:24.218Z,25.03
2018-02-01T06:58:51.888Z,22.70
2018-02-01T07:01:35.312Z,22.33
2018-02-01T07:04:03.216Z,22.80
2018-02-01T07:06:30.884Z,23.00
2018-02-01T07:08:59.600Z,22.03
2018-02-01T07:11:26.306Z,22.97
2018-02-01T07:13:53.974Z,24.57
2018-02-01T07:16:20.742Z,22.47
2018-02-01T07:18:47.469Z,19.13
2018-02-01T07:21:26.448Z,20.53
2018-02-01T07:23:54.232Z,20.67
2018-02-01T07:26:21.930Z,20.53
2018-02-01T07:28:49.724Z,18.67
2018-02-01T07:31:20.438Z,18.93
2018-02-01T07:33:47.125Z,16.33
2018-02-01T07:36:13.886Z,19.10
2018-02-01T07:38:41.606Z,18.03
2018-02-01T07:41:08.372Z,15.70
2018-02-01T07:43:37.058Z,15.33
2018-02-01T07:46:04.596Z,15.87
2018-02-01T07:48:31.268Z,18.57
2018-02-01T07:51:05.656Z,18.90
2018-02-01T07:53:32.337Z,18.57
2018-02-01T07:56:00.646Z,17.47
2018-02-01T07:58:28.397Z,16.27
2018-02-01T08:00:55.076Z,15.90
2018-02-01T08:03:34.686Z,14.27
2018-02-01T08:06:03.340Z,14.07
2018-02-01T08:08:39.183Z,16.20
2018-02-01T08:11:05.865Z,16.30
2018-02-01T08:13:33.643Z,14.97
2018-02-01T08:16:01.436Z,14.60
2018-02-01T08:18:29.120Z,14.67
2018-02-01T08:20:57.809Z,13.93
2018-02-01T08:23:24.624Z,14.27
2018-02-01T08:25:52.331Z,14.40
2018-02-01T08:28:20.002Z,16.77
2018-02-01T08:30:46.718Z,14.20
2018-02-01T08:33:15.448Z,15.70
2018-02-01T08:35:45.112Z,16.13
2018-02-01T08:38:12.869Z,15.53
2018-02-01T08:40:40.600Z,15.20
2018-02-01T08:43:07.330Z,15.73
2018-02-01T08:45:41.823Z,17.63
2018-02-01T08:48:10.570Z,15.53
2018-02-01T08:50:37.284Z,15.47
2018-02-01T08:53:04.024Z,14.40
2018-02-01T08:55:31.835Z,13.37
2018-02-01T08:58:00.068Z,14.27
2018-02-01T09:00:26.857Z,17.93
2018-02-01T09:02:55.517Z,19.33
2018-02-01T09:08:09.709Z,21.40
2018-02-01T09:10:36.464Z,20.60
2018-02-01T09:13:04.101Z,21.30
2018-02-01T09:15:30.810Z,21.00
2018-02-01T09:17:58.552Z,20.80
2018-02-01T09:20:26.279Z,21.40
2018-02-01T09:22:53.023Z,18.47
2018-02-01T09:25:19.751Z,18.40
2018-02-01T09:27:47.444Z,20.17
2018-02-01T09:43:05.222Z,18.17
2018-02-01T09:45:31.918Z,19.50
2018-02-01T09:47:58.601Z,19.33
2018-02-01T09:50:25.336Z,18.77
2018-02-01T09:52:52.980Z,16.97
2018-02-01T09:55:24.742Z,16.60
2018-02-01T09:57:51.531Z,20.67
2018-02-01T10:00:19.234Z,21.43
2018-02-01T10:02:47.990Z,20.67
2018-02-01T10:05:16.658Z,22.30
2018-02-01T10:07:43.370Z,20.33
2018-02-01T10:10:10.054Z,20.83
2018-02-01T10:12:38.730Z,18.90
2018-02-01T10:15:06.480Z,22.20
2018-02-01T10:17:33.200Z,24.87
2018-02-01T10:20:00.916Z,31.20
2018-02-01T10:22:27.664Z,37.57
2018-02-01T10:24:55.396Z,39.03
2018-02-01T10:27:22.175Z,41.43
2018-02-01T10:29:50.846Z,40.03
2018-02-01T10:32:17.568Z,40.20
2018-02-01T10:34:44.312Z,38.57
2018-02-01T10:37:10.996Z,39.17
2018-02-01T10:39:38.736Z,41.50
2018-02-01T10:42:07.476Z,42.87
2018-02-01T10:44:35.236Z,43.40
2018-02-01T10:47:02.954Z,41.73
2018-02-01T10:49:29.686Z,40.43
2018-02-01T11:04:30.018Z,43.80
2018-02-01T11:06:56.826Z,44.27
2018-02-01T11:09:24.538Z,46.10
2018-02-01T11:11:52.208Z,46.13
2018-02-01T11:14:19.926Z,46.50
2018-02-01T11:16:46.605Z,46.83
2018-02-01T11:19:14.281Z,48.40
2018-02-01T11:21:41.248Z,49.50
2018-02-01T11:24:07.986Z,51.37
2018-02-01T11:26:34.746Z,54.03
2018-02-01T11:29:02.436Z,57.93
2018-02-01T11:31:30.581Z,57.50
2018-02-01T11:33:57.578Z,57.17
2018-02-01T11:36:26.358Z,58.10
2018-02-01T11:38:54.110Z,56.30
2018-02-01T11:54:11.872Z,49.83
2018-02-01T11:56:39.596Z,53.30
2018-02-01T11:59:06.308Z,49.17
2018-02-01T12:01:36.836Z,48.07
2018-02-01T12:04:03.587Z,46.13
2018-02-01T12:06:30.290Z,44.33
2018-02-01T12:08:58.132Z,44.23
2018-02-01T12:11:25.810Z,41.30
2018-02-01T12:14:01.148Z,42.13
2018-02-01T12:16:28.822Z,42.60
2018-02-01T12:18:55.594Z,45.53
2018-02-01T12:21:24.320Z,48.80
2018-02-01T12:23:51.038Z,48.13
2018-02-01T12:26:18.750Z,50.03
2018-02-01T12:28:46.453Z,54.93
2018-02-01T12:31:15.114Z,56.23
2018-02-01T12:33:41.844Z,52.60
2018-02-01T12:36:08.590Z,48.80
2018-02-01T12:38:35.306Z,49.60
2018-02-01T12:41:03.058Z,47.57
2018-02-01T12:43:30.818Z,47.93
2018-02-01T12:45:58.736Z,49.80
2018-02-01T12:48:26.373Z,50.90
2018-02-01T12:50:54.112Z,50.70
2018-02-01T12:53:21.745Z,48.33
2018-02-01T12:55:49.416Z,48.77
2018-02-01T13:03:48.015Z,52.23
2018-02-01T13:06:15.715Z,49.77
2018-02-01T13:08:43.613Z,48.70
2018-02-01T13:11:12.302Z,50.87
2018-02-01T13:13:40.950Z,48.53
2018-02-01T13:16:07.652Z,49.33
2018-02-01T13:18:35.420Z,47.53
2018-02-01T13:21:03.200Z,47.43
2018-02-01T13:23:30.910Z,47.73
2018-02-01T13:25:57.727Z,45.83
2018-02-01T13:28:25.440Z,45.53
2018-02-01T13:30:53.503Z,46.90
2018-02-01T13:33:21.210Z,45.17
2018-02-01T13:35:49.846Z,43.23
2018-02-01T13:38:16.546Z,44.67
2018-02-01T13:40:45.225Z,47.87
2018-02-01T13:43:11.929Z,47.57
2018-02-01T13:45:39.608Z,46.73
2018-02-01T13:48:07.410Z,48.30
2018-02-01T13:50:34.118Z,48.43
2018-02-01T13:53:00.854Z,50.63
2018-02-01T14:05:09.844Z,54.07
2018-02-01T14:07:44.282Z,58.67
2018-02-01T14:10:11.009Z,56.23
2018-02-01T14:12:38.691Z,56.47
2018-02-01T14:15:05.402Z,55.07
2018-02-01T14:17:33.165Z,53.83
2018-02-01T14:20:00.894Z,53.77
2018-02-01T14:22:27.628Z,53.93
2018-02-01T14:24:54.418Z,54.17
2018-02-01T14:27:21.112Z,55.03
2018-02-01T14:29:48.770Z,54.23
2018-02-01T14:32:15.550Z,54.27
2018-02-01T14:34:44.218Z,53.53
2018-02-01T14:37:12.804Z,55.70
2018-02-01T14:39:39.530Z,56.10
2018-02-01T14:42:06.256Z,56.77
2018-02-01T14:44:33.950Z,61.70
2018-02-01T14:47:00.683Z,60.03
2018-02-01T14:49:29.398Z,63.43
2018-02-01T14:51:58.071Z,64.70
2018-02-01T14:54:24.798Z,68.77
2018-02-01T14:56:51.502Z,64.53
2018-02-01T14:59:19.228Z,70.83
2018-02-01T15:01:45.971Z,72.27
2018-02-01T15:04:14.673Z,75.43
2018-02-01T15:06:50.134Z,80.43
2018-02-01T15:09:16.870Z,79.20
2018-02-01T15:11:43.613Z,82.90
2018-02-01T15:14:11.354Z,77.37
2018-02-01T15:16:39.076Z,79.33
2018-02-01T15:19:11.539Z,76.23
2018-02-01T15:21:38.272Z,77.20
2018-02-01T15:36:56.039Z,81.83
2018-02-01T15:39:23.805Z,80.67
2018-02-01T15:41:52.487Z,87.63
2018-02-01T15:44:20.269Z,95.00
2018-02-01T15:46:48.076Z,102.23
2018-02-01T15:49:15.777Z,111.00
2018-02-01T15:51:42.589Z,110.20
2018-02-01T15:56:55.213Z,116.90
2018-02-01T15:59:24.023Z,120.77
2018-02-01T16:01:52.730Z,133.03
2018-02-01T16:04:19.475Z,149.53
2018-02-01T16:06:46.235Z,167.17
2018-02-01T16:09:12.985Z,173.23
2018-02-01T16:11:41.087Z,199.47
2018-02-01T16:14:08.833Z,197.23
2018-02-01T16:16:36.485Z,195.67
2018-02-01T16:19:04.517Z,184.87
2018-02-01T16:21:32.249Z,186.63
2018-02-01T16:24:02.961Z,179.13
2018-02-01T16:26:34.751Z,178.63
2018-02-01T16:29:03.506Z,176.27
2018-02-01T16:31:30.202Z,167.30
2018-02-01T16:33:57.993Z,161.07
2018-02-01T16:36:25.724Z,151.67
2018-02-01T16:38:58.411Z,147.07
2018-02-01T16:41:26.175Z,139.73
2018-02-01T16:43:53.905Z,132.57
2018-02-01T16:46:20.665Z,135.33
2018-02-01T16:48:47.413Z,139.50
2018-02-01T16:51:14.754Z,108.40
2018-02-01T16:53:41.497Z,104.23
2018-02-01T16:56:09.175Z,98.80
2018-02-01T16:58:36.825Z,96.47
2018-02-01T17:01:03.599Z,96.17
2018-02-01T17:03:30.324Z,96.77
2018-02-01T17:05:57.083Z,99.40
2018-02-01T17:08:24.752Z,96.90
2018-02-01T17:10:53.429Z,95.63
2018-02-01T17:13:21.212Z,94.73
2018-02-01T17:15:47.963Z,95.80
2018-02-01T17:18:15.595Z,93.13
2018-02-01T17:20:42.290Z,96.70
2018-02-01T17:23:10.061Z,96.60
2018-02-01T17:25:37.817Z,94.63
2018-02-01T17:28:13.362Z,94.23
2018-02-01T17:30:42.020Z,95.20
2018-02-01T17:33:09.683Z,90.47
2018-02-01T17:35:36.844Z,89.77
2018-02-01T17:38:05.525Z,89.80
2018-02-01T17:40:33.200Z,92.63
2018-02-01T17:43:00.073Z,89.07
2018-02-01T17:45:27.813Z,91.90
2018-02-01T17:47:56.511Z,108.10
2018-02-01T17:50:24.244Z,115.23
2018-02-01T17:52:51.952Z,117.33
2018-02-01T17:55:19.443Z,132.07
2018-02-01T17:57:46.187Z,144.30
2018-02-01T18:00:12.905Z,158.00
2018-02-01T18:02:40.587Z,162.13
2018-02-01T18:05:08.347Z,162.37
2018-02-01T18:07:35.069Z,177.47
2018-02-01T18:10:02.751Z,185.00
2018-02-01T18:12:29.555Z,185.67
2018-02-01T18:14:57.244Z,181.77
2018-02-01T18:17:24.905Z,198.77
2018-02-01T18:19:52.611Z,203.07
2018-02-01T18:22:20.362Z,211.37
2018-02-01T18:24:48.019Z,183.90
2018-02-01T18:27:14.808Z,181.07
2018-02-01T18:29:42.518Z,175.67
2018-02-01T18:32:09.277Z,164.40
2018-02-01T18:34:36.050Z,162.57
2018-02-01T18:37:04.697Z,159.43
2018-02-01T18:39:31.428Z,166.60
2018-02-01T18:41:59.143Z,185.27
2018-02-01T18:44:40.069Z,192.83
2018-02-01T18:47:25.556Z,182.40
2018-02-01T18:49:53.241Z,172.37
2018-02-01T18:52:19.975Z,166.07
2018-02-01T18:54:46.687Z,184.50
2018-02-01T18:57:14.476Z,178.03
2018-02-01T18:59:42.263Z,181.03
2018-02-01T19:02:10.961Z,180.63
2018-02-01T19:04:37.707Z,166.73
2018-02-01T19:07:05.407Z,170.53
2018-02-01T19:09:33.141Z,170.27
2018-02-01T19:12:00.799Z,168.80
2018-02-01T19:14:27.545Z,185.10
2018-02-01T19:16:56.241Z,183.43
2018-02-01T19:19:22.990Z,186.00
2018-02-01T19:21:50.693Z,197.03
2018-02-01T19:24:18.407Z,193.23
2018-02-01T19:26:45.897Z,222.93
2018-02-01T19:29:13.596Z,219.43
2018-02-01T19:31:41.344Z,216.53
2018-02-01T19:34:10.035Z,205.00
2018-02-01T19:36:37.798Z,211.73
2018-02-01T19:39:06.472Z,207.60
2018-02-01T19:41:35.151Z,233.80
2018-02-01T19:44:02.777Z,248.37
2018-02-01T19:46:30.503Z,238.57
2018-02-01T19:48:57.219Z,216.93
2018-02-01T19:51:25.947Z,207.40
2018-02-01T19:53:53.731Z,199.93
2018-02-01T19:56:21.449Z,200.17
2018-02-01T19:58:48.241Z,196.47
2018-02-01T20:01:14.931Z,195.20
2018-02-01T20:03:41.625Z,197.00
2018-02-01T20:06:09.385Z,197.87
2018-02-01T20:08:36.106Z,207.27
2018-02-01T20:11:02.831Z,166.50
2018-02-01T20:13:29.573Z,142.13
2018-02-01T20:16:01.337Z,139.57
2018-02-01T20:18:33.054Z,134.10
2018-02-01T20:21:05.423Z,106.00
2018-02-01T20:23:33.209Z,86.10
2018-02-01T20:26:00.909Z,83.00
2018-02-01T20:28:27.600Z,65.70
2018-02-01T20:30:55.356Z,64.70
2018-02-01T20:33:22.992Z,62.13
2018-02-01T20:35:49.731Z,64.87
2018-02-01T20:38:17.494Z,64.67
2018-02-01T20:40:45.153Z,54.93
2018-02-01T20:43:12.831Z,51.27
2018-02-01T20:48:31.931Z,41.00
2018-02-01T20:50:59.343Z,38.77
2018-02-01T20:53:32.763Z,32.17
2018-02-01T20:56:13.747Z,26.93
2018-02-01T20:58:41.418Z,22.93
2018-02-01T21:01:09.135Z,25.17
2018-02-01T21:03:36.953Z,23.93
2018-02-01T21:06:05.640Z,24.27
2018-02-01T21:08:33.365Z,22.87
2018-02-01T21:11:13.650Z,24.97
2018-02-01T21:13:42.375Z,21.90
2018-02-01T21:16:10.057Z,20.63
2018-02-01T21:18:38.769Z,19.83
2018-02-01T21:21:06.743Z,15.97
2018-02-01T21:23:33.435Z,17.67
2018-02-01T21:26:02.175Z,15.60
2018-02-01T21:28:29.942Z,20.17
2018-02-01T21:31:01.501Z,20.77
2018-02-01T21:33:29.271Z,20.57
2018-02-01T21:35:56.985Z,22.27
2018-02-01T21:38:24.679Z,18.83
2018-02-01T21:40:51.450Z,20.00
2018-02-01T21:43:19.083Z,19.83
2018-02-01T21:45:58.791Z,21.43
2018-02-01T21:48:25.491Z,20.30
2018-02-01T21:50:52.216Z,19.50
2018-02-01T21:53:20.931Z,19.87
2018-02-01T21:55:47.664Z,18.97
2018-02-01T21:58:14.413Z,17.37
2018-02-01T22:00:41.181Z,14.67
2018-02-01T22:03:07.884Z,15.13
2018-02-01T22:05:35.551Z,17.93
2018-02-01T22:08:03.264Z,19.47
2018-02-01T22:10:29.955Z,20.10
2018-02-01T22:12:57.621Z,21.87
2018-02-01T22:15:25.339Z,19.07
2018-02-01T22:17:53.067Z,15.20
2018-02-01T22:20:19.836Z,17.00
2018-02-01T22:22:47.610Z,15.50
2018-02-01T22:25:15.334Z,13.30
2018-02-01T22:27:43.011Z,14.10
2018-02-01T22:30:11.717Z,16.50
2018-02-01T22:42:18.558Z,16.03
2018-02-01T22:44:45.284Z,16.53
2018-02-01T22:47:12.167Z,20.30
2018-02-01T22:49:38.931Z,19.60
2018-02-01T22:52:06.664Z,22.40
2018-02-01T22:54:34.327Z,22.70
2018-02-01T22:57:02.015Z,23.23
2018-02-01T22:59:28.747Z,19.80
2018-02-01T23:01:56.399Z,25.33
2018-02-01T23:04:24.106Z,24.60
2018-02-01T23:06:51.819Z,25.67
2018-02-01T23:09:19.501Z,28.80
2018-02-01T23:11:47.217Z,28.13
2018-02-01T23:14:14.963Z,24.10
2018-02-01T23:16:41.691Z,25.30
2018-02-01T23:19:08.470Z,22.53
2018-02-01T23:21:36.192Z,22.67
2018-02-01T23:24:03.863Z,23.43
2018-02-01T23:26:31.567Z,23.23
2018-02-01T23:29:00.206Z,22.90
2018-02-01T23:31:27.875Z,20.03
2018-02-01T23:33:55.638Z,19.70
2018-02-01T23:36:24.323Z,18.83
2018-02-01T23:38:52.004Z,19.00
2018-02-01T23:41:20.741Z,19.87
2018-02-01T23:43:48.466Z,19.43
2018-02-01T23:46:18.268Z,17.07
2018-02-01T23:48:49.040Z,18.03
2018-02-01T23:51:15.759Z,17.80
2018-02-01T23:53:44.437Z,19.17
2018-02-01T23:56:13.170Z,18.83
2018-02-01T23:58:39.906Z,19.87
